createdAt,value
2017-03-29T00:00:56.839Z,985.32
2017-03-29T00:02:07.092Z,985.27
2017-03-29T00:03:17.349Z,985.24
2017-03-29T00:04:27.296Z,985.26
2017-03-29T00:05:37.547Z,985.27
2017-03-29T00:06:47.821Z,985.2
2017-03-29T00:07:58.076Z,985.23
2017-03-29T00:09:07.703Z,985.15
2017-03-29T00:10:17.960Z,985.2
2017-03-29T00:11:28.210Z,985.16
2017-03-29T00:12:38.466Z,985.14
2017-03-29T00:13:48.724Z,985.14
2017-03-29T00:14:58.979Z,985.13
2017-03-29T00:16:09.271Z,985.1
2017-03-29T00:17:19.539Z,985.05
2017-03-29T00:18:29.801Z,985.1
2017-03-29T00:19:40.055Z,985.06
2017-03-29T00:20:50.308Z,984.99
2017-03-29T00:22:00.573Z,984.98
2017-03-29T00:23:10.519Z,984.93
2017-03-29T00:24:20.454Z,984.94
2017-03-29T00:25:30.400Z,984.94
2017-03-29T00:26:40.661Z,984.92
2017-03-29T00:27:50.918Z,984.9
2017-03-29T00:29:01.180Z,984.78
2017-03-29T00:30:11.436Z,984.79
2017-03-29T00:31:21.690Z,984.79
2017-03-29T00:32:31.951Z,984.78
2017-03-29T00:33:42.206Z,984.76
2017-03-29T00:34:52.461Z,984.79
2017-03-29T00:36:02.719Z,984.73
2017-03-29T00:37:12.977Z,984.74
2017-03-29T00:38:22.918Z,984.72
2017-03-29T00:39:32.851Z,984.72
2017-03-29T00:40:43.109Z,984.74
2017-03-29T00:41:53.367Z,984.7
2017-03-29T00:43:03.314Z,984.66
2017-03-29T00:44:13.570Z,984.69
2017-03-29T00:45:23.827Z,984.64
2017-03-29T00:46:34.081Z,984.66
2017-03-29T00:47:46.372Z,984.64
2017-03-29T00:48:56.632Z,984.62
2017-03-29T00:50:06.890Z,984.61
2017-03-29T00:51:17.149Z,984.57
2017-03-29T00:52:26.778Z,984.58
2017-03-29T00:53:37.146Z,984.57
2017-03-29T00:54:47.402Z,984.54
2017-03-29T00:55:57.656Z,984.53
2017-03-29T00:57:07.916Z,984.59
2017-03-29T00:58:18.172Z,984.57
2017-03-29T00:59:28.423Z,984.57
2017-03-29T01:00:38.681Z,984.56
2017-03-29T01:01:48.650Z,984.55
2017-03-29T01:02:58.903Z,984.56
2017-03-29T01:04:09.163Z,984.56
2017-03-29T01:06:31.937Z,984.52
2017-03-29T01:07:42.193Z,984.49
2017-03-29T01:08:52.451Z,984.47
2017-03-29T01:10:02.708Z,984.45
2017-03-29T01:11:12.965Z,984.45
2017-03-29T01:12:23.221Z,984.46
2017-03-29T01:13:33.476Z,984.43
2017-03-29T01:14:43.727Z,984.41
2017-03-29T01:15:53.995Z,984.4
2017-03-29T01:17:04.252Z,984.37
2017-03-29T01:18:14.529Z,984.34
2017-03-29T01:19:24.791Z,984.27
2017-03-29T01:20:35.046Z,984.32
2017-03-29T01:21:45.303Z,984.29
2017-03-29T01:22:55.556Z,984.25
2017-03-29T01:24:05.821Z,984.26
2017-03-29T01:25:15.756Z,984.23
2017-03-29T01:26:26.019Z,984.21
2017-03-29T01:27:35.963Z,984.22
2017-03-29T01:28:46.219Z,984.22
2017-03-29T01:29:56.162Z,984.18
2017-03-29T01:31:06.102Z,984.14
2017-03-29T01:32:16.358Z,984.13
2017-03-29T01:33:26.612Z,984.11
2017-03-29T01:34:36.555Z,984.11
2017-03-29T01:35:46.838Z,984.08
2017-03-29T01:36:57.094Z,984.05
2017-03-29T01:38:07.349Z,984.06
2017-03-29T01:39:17.288Z,984.05
2017-03-29T01:40:27.541Z,983.99
2017-03-29T01:41:37.796Z,984.01
2017-03-29T01:42:48.050Z,983.94
2017-03-29T01:43:58.300Z,983.96
2017-03-29T01:45:08.551Z,983.97
2017-03-29T01:46:18.809Z,983.97
2017-03-29T01:47:29.066Z,983.98
2017-03-29T01:48:39.009Z,983.96
2017-03-29T01:49:49.264Z,983.93
2017-03-29T01:50:59.526Z,983.92
2017-03-29T01:52:09.791Z,983.92
2017-03-29T01:53:20.051Z,983.93
2017-03-29T01:54:30.306Z,983.9
2017-03-29T01:55:40.563Z,983.87
2017-03-29T01:56:50.817Z,983.85
2017-03-29T01:58:00.760Z,983.83
2017-03-29T01:59:11.044Z,983.83
2017-03-29T02:00:21.304Z,983.85
2017-03-29T02:01:31.561Z,983.84
2017-03-29T02:02:41.813Z,983.88
2017-03-29T02:03:52.071Z,983.87
2017-03-29T02:05:02.346Z,983.88
2017-03-29T02:06:12.608Z,983.88
2017-03-29T02:07:22.866Z,983.9
2017-03-29T02:08:32.809Z,983.84
2017-03-29T02:09:43.085Z,983.79
2017-03-29T02:10:53.370Z,983.8
2017-03-29T02:12:03.312Z,983.8
2017-03-29T02:13:12.938Z,983.77
2017-03-29T02:14:23.189Z,983.83
2017-03-29T02:15:33.445Z,983.77
2017-03-29T02:16:43.704Z,983.78
2017-03-29T02:17:53.957Z,983.73
2017-03-29T02:19:04.222Z,983.77
2017-03-29T02:20:14.476Z,983.71
2017-03-29T02:21:24.734Z,983.71
2017-03-29T02:22:34.991Z,983.71
2017-03-29T02:23:45.244Z,983.77
2017-03-29T02:24:55.500Z,983.74
2017-03-29T02:26:05.441Z,983.79
2017-03-29T02:27:15.727Z,983.73
2017-03-29T02:28:25.980Z,983.72
2017-03-29T02:29:36.239Z,983.75
2017-03-29T02:30:46.177Z,983.76
2017-03-29T02:31:56.440Z,983.73
2017-03-29T02:33:06.379Z,983.74
2017-03-29T02:34:16.633Z,983.74
2017-03-29T02:35:26.889Z,983.73
2017-03-29T02:36:37.152Z,983.75
2017-03-29T02:37:47.094Z,983.78
2017-03-29T02:38:57.344Z,983.81
2017-03-29T02:40:07.602Z,983.78
2017-03-29T02:41:17.574Z,983.76
2017-03-29T02:42:27.830Z,983.77
2017-03-29T02:43:38.089Z,983.73
2017-03-29T02:44:48.350Z,983.73
2017-03-29T02:45:58.620Z,983.72
2017-03-29T02:47:08.878Z,983.73
2017-03-29T02:48:19.141Z,983.66
2017-03-29T02:49:29.434Z,983.67
2017-03-29T02:50:39.686Z,983.66
2017-03-29T02:51:49.945Z,983.67
2017-03-29T02:53:00.199Z,983.61
2017-03-29T02:54:10.458Z,983.62
2017-03-29T02:55:20.718Z,983.64
2017-03-29T02:56:30.971Z,983.65
2017-03-29T02:57:41.235Z,983.61
2017-03-29T02:58:51.173Z,983.62
2017-03-29T03:00:01.434Z,983.63
2017-03-29T03:01:11.689Z,983.59
2017-03-29T03:02:21.949Z,983.64
2017-03-29T03:03:32.204Z,983.67
2017-03-29T03:04:42.147Z,983.62
2017-03-29T03:05:52.408Z,983.62
2017-03-29T03:07:02.669Z,983.62
2017-03-29T03:08:12.923Z,983.57
2017-03-29T03:09:22.870Z,983.54
2017-03-29T03:10:33.126Z,983.57
2017-03-29T03:11:43.385Z,983.55
2017-03-29T03:12:53.635Z,983.57
2017-03-29T03:14:03.900Z,983.57
2017-03-29T03:15:14.159Z,983.6
2017-03-29T03:16:24.410Z,983.6
2017-03-29T03:17:34.348Z,983.63
2017-03-29T03:18:44.598Z,983.64
2017-03-29T03:19:54.849Z,983.59
2017-03-29T03:21:04.486Z,983.6
2017-03-29T03:22:14.742Z,983.57
2017-03-29T03:23:24.997Z,983.57
2017-03-29T03:24:35.248Z,983.49
2017-03-29T03:25:45.192Z,983.56
2017-03-29T03:26:55.450Z,983.54
2017-03-29T03:28:05.706Z,983.53
2017-03-29T03:29:15.962Z,983.53
2017-03-29T03:30:26.219Z,983.52
2017-03-29T03:31:36.472Z,983.51
2017-03-29T03:32:46.728Z,983.5
2017-03-29T03:33:56.979Z,983.47
2017-03-29T03:35:06.915Z,983.47
2017-03-29T03:36:17.170Z,983.45
2017-03-29T03:37:27.423Z,983.49
2017-03-29T03:38:37.365Z,983.45
2017-03-29T03:39:47.616Z,983.43
2017-03-29T03:40:57.558Z,983.48
2017-03-29T03:42:07.813Z,983.49
2017-03-29T03:43:18.069Z,983.48
2017-03-29T03:44:28.009Z,983.4
2017-03-29T03:45:37.949Z,983.41
2017-03-29T03:46:48.201Z,983.47
2017-03-29T03:47:58.453Z,983.45
2017-03-29T03:49:08.414Z,983.5
2017-03-29T03:50:18.670Z,983.48
2017-03-29T03:51:28.927Z,983.48
2017-03-29T03:52:38.870Z,983.52
2017-03-29T03:53:48.806Z,983.48
2017-03-29T03:54:58.743Z,983.48
2017-03-29T03:56:08.995Z,983.45
2017-03-29T03:57:19.247Z,983.46
2017-03-29T03:58:29.502Z,983.47
2017-03-29T03:59:39.758Z,983.46
2017-03-29T04:00:50.022Z,983.4
2017-03-29T04:02:00.280Z,983.41
2017-03-29T04:03:10.538Z,983.4
2017-03-29T04:04:20.793Z,983.44
2017-03-29T04:05:31.046Z,983.43
2017-03-29T04:06:41.296Z,983.44
2017-03-29T04:07:51.558Z,983.42
2017-03-29T04:09:01.832Z,983.41
2017-03-29T04:10:12.083Z,983.34
2017-03-29T04:11:22.347Z,983.36
2017-03-29T04:12:32.621Z,983.38
2017-03-29T04:13:42.886Z,983.38
2017-03-29T04:14:53.140Z,983.38
2017-03-29T04:16:03.400Z,983.35
2017-03-29T04:17:13.656Z,983.36
2017-03-29T04:18:23.916Z,983.34
2017-03-29T04:19:34.170Z,983.35
2017-03-29T04:20:44.114Z,983.36
2017-03-29T04:21:54.371Z,983.34
2017-03-29T04:23:04.659Z,983.34
2017-03-29T04:24:14.911Z,983.37
2017-03-29T04:25:25.171Z,983.38
2017-03-29T04:26:35.124Z,983.34
2017-03-29T04:27:45.375Z,983.39
2017-03-29T04:28:55.628Z,983.37
2017-03-29T04:30:05.878Z,983.37
2017-03-29T04:31:16.132Z,983.37
2017-03-29T04:32:26.392Z,983.37
2017-03-29T04:33:36.640Z,983.33
2017-03-29T04:34:46.894Z,983.35
2017-03-29T04:35:56.843Z,983.36
2017-03-29T04:37:07.099Z,983.36
2017-03-29T04:38:17.354Z,983.35
2017-03-29T04:39:27.303Z,983.37
2017-03-29T04:40:37.242Z,983.36
2017-03-29T04:41:47.500Z,983.36
2017-03-29T04:42:57.755Z,983.39
2017-03-29T04:44:08.015Z,983.42
2017-03-29T04:45:17.956Z,983.43
2017-03-29T04:46:28.211Z,983.43
2017-03-29T04:47:38.464Z,983.47
2017-03-29T04:48:48.718Z,983.45
2017-03-29T04:49:58.969Z,983.49
2017-03-29T04:51:08.906Z,983.5
2017-03-29T04:52:18.843Z,983.54
2017-03-29T04:53:29.101Z,983.55
2017-03-29T04:54:39.355Z,983.56
2017-03-29T04:55:49.608Z,983.58
2017-03-29T04:56:59.861Z,983.58
2017-03-29T04:58:10.115Z,983.59
2017-03-29T04:59:20.372Z,983.59
2017-03-29T05:00:30.313Z,983.6
2017-03-29T05:01:40.567Z,983.63
2017-03-29T05:02:50.822Z,983.61
2017-03-29T05:04:01.081Z,983.64
2017-03-29T05:05:11.338Z,983.63
2017-03-29T05:06:21.592Z,983.65
2017-03-29T05:07:31.848Z,983.67
2017-03-29T05:08:42.102Z,983.7
2017-03-29T05:09:52.360Z,983.68
2017-03-29T05:11:02.300Z,983.72
2017-03-29T05:12:12.558Z,983.71
2017-03-29T05:13:22.500Z,983.69
2017-03-29T05:14:32.449Z,983.66
2017-03-29T05:15:42.703Z,983.65
2017-03-29T05:16:52.651Z,983.65
2017-03-29T05:18:02.903Z,983.7
2017-03-29T05:19:12.839Z,983.69
2017-03-29T05:20:23.102Z,983.69
2017-03-29T05:21:33.361Z,983.74
2017-03-29T05:22:43.621Z,983.72
2017-03-29T05:23:53.891Z,983.68
2017-03-29T05:25:04.152Z,983.65
2017-03-29T05:26:14.409Z,983.67
2017-03-29T05:27:24.353Z,983.71
2017-03-29T05:28:34.607Z,983.7
2017-03-29T05:29:44.866Z,983.71
2017-03-29T05:30:54.809Z,983.76
2017-03-29T05:32:05.102Z,983.77
2017-03-29T05:33:15.356Z,983.75
2017-03-29T05:34:25.296Z,983.74
2017-03-29T05:35:35.555Z,983.78
2017-03-29T05:36:45.811Z,983.79
2017-03-29T05:37:55.763Z,983.75
2017-03-29T05:39:05.703Z,983.74
2017-03-29T05:40:15.961Z,983.79
2017-03-29T05:41:26.224Z,983.77
2017-03-29T05:42:36.474Z,983.75
2017-03-29T05:43:46.729Z,983.75
2017-03-29T05:44:56.981Z,983.74
2017-03-29T05:46:07.234Z,983.76
2017-03-29T05:47:17.489Z,983.76
2017-03-29T05:48:27.113Z,983.77
2017-03-29T05:49:37.382Z,983.79
2017-03-29T05:50:47.633Z,983.73
2017-03-29T05:51:57.888Z,983.74
2017-03-29T05:53:08.139Z,983.73
2017-03-29T05:54:18.395Z,983.78
2017-03-29T05:55:28.641Z,983.68
2017-03-29T05:56:38.897Z,983.65
2017-03-29T05:57:49.188Z,983.72
2017-03-29T05:58:59.446Z,983.67
2017-03-29T06:00:09.703Z,983.67
2017-03-29T06:01:19.962Z,983.66
2017-03-29T06:02:30.225Z,983.69
2017-03-29T06:03:40.479Z,983.7
2017-03-29T06:04:50.733Z,983.64
2017-03-29T06:06:00.711Z,983.68
2017-03-29T06:07:10.972Z,983.68
2017-03-29T06:08:20.911Z,983.7
2017-03-29T06:09:30.850Z,983.7
2017-03-29T06:10:41.111Z,983.66
2017-03-29T06:11:51.046Z,983.71
2017-03-29T06:13:01.309Z,983.71
2017-03-29T06:14:11.568Z,983.71
2017-03-29T06:15:21.834Z,983.75
2017-03-29T06:16:32.091Z,983.76
2017-03-29T06:17:42.345Z,983.78
2017-03-29T06:18:52.599Z,983.8
2017-03-29T06:20:02.855Z,983.82
2017-03-29T06:21:13.119Z,983.82
2017-03-29T06:22:23.374Z,983.81
2017-03-29T06:23:33.313Z,983.79
2017-03-29T06:24:43.570Z,983.8
2017-03-29T06:25:53.823Z,983.8
2017-03-29T06:27:04.076Z,983.83
2017-03-29T06:28:14.326Z,983.84
2017-03-29T06:29:24.585Z,983.85
2017-03-29T06:30:34.840Z,983.85
2017-03-29T06:31:45.102Z,983.86
2017-03-29T06:32:55.360Z,983.88
2017-03-29T06:34:05.623Z,983.89
2017-03-29T06:35:15.873Z,983.93
2017-03-29T06:36:26.137Z,983.91
2017-03-29T06:37:36.387Z,983.93
2017-03-29T06:38:46.328Z,983.94
2017-03-29T06:39:56.583Z,983.9
2017-03-29T06:41:06.841Z,983.92
2017-03-29T06:42:17.097Z,983.94
2017-03-29T06:43:27.354Z,983.94
2017-03-29T06:44:37.613Z,983.95
2017-03-29T06:45:47.874Z,983.95
2017-03-29T06:46:57.814Z,983.96
2017-03-29T06:48:08.090Z,984.02
2017-03-29T06:49:18.341Z,984
2017-03-29T06:50:28.289Z,984.04
2017-03-29T06:51:38.227Z,984.06
2017-03-29T06:52:48.504Z,984.04
2017-03-29T06:53:58.758Z,984.12
2017-03-29T06:55:09.010Z,984.09
2017-03-29T06:56:19.407Z,984.1
2017-03-29T06:57:29.690Z,984.09
2017-03-29T06:58:39.945Z,984.12
2017-03-29T06:59:50.203Z,984.14
2017-03-29T07:01:00.464Z,984.12
2017-03-29T07:02:10.717Z,984.12
2017-03-29T07:03:20.966Z,984.11
2017-03-29T07:04:31.279Z,984.17
2017-03-29T07:05:42.004Z,984.18
2017-03-29T07:06:52.263Z,984.17
2017-03-29T07:08:02.533Z,984.26
2017-03-29T07:09:12.470Z,984.23
2017-03-29T07:10:22.726Z,984.27
2017-03-29T07:11:32.987Z,984.24
2017-03-29T07:12:43.247Z,984.3
2017-03-29T07:13:53.190Z,984.29
2017-03-29T07:15:03.136Z,984.3
2017-03-29T07:16:13.079Z,984.38
2017-03-29T07:17:23.028Z,984.37
2017-03-29T07:18:33.320Z,984.38
2017-03-29T07:19:42.634Z,984.37
2017-03-29T07:20:52.890Z,984.42
2017-03-29T07:22:03.147Z,984.39
2017-03-29T07:23:13.413Z,984.41
2017-03-29T07:24:23.673Z,984.46
2017-03-29T07:25:33.928Z,984.45
2017-03-29T07:26:44.189Z,984.45
2017-03-29T07:27:54.448Z,984.46
2017-03-29T07:29:04.724Z,984.45
2017-03-29T07:30:14.988Z,984.48
2017-03-29T07:31:25.242Z,984.47
2017-03-29T07:32:35.500Z,984.45
2017-03-29T07:33:45.762Z,984.43
2017-03-29T07:34:55.706Z,984.47
2017-03-29T07:36:05.643Z,984.47
2017-03-29T07:37:15.900Z,984.44
2017-03-29T07:38:26.162Z,984.46
2017-03-29T07:39:36.419Z,984.45
2017-03-29T07:40:46.369Z,984.47
2017-03-29T07:41:56.309Z,984.5
2017-03-29T07:43:06.571Z,984.5
2017-03-29T07:44:16.838Z,984.51
2017-03-29T07:45:27.100Z,984.54
2017-03-29T07:46:37.051Z,984.53
2017-03-29T07:47:47.309Z,984.56
2017-03-29T07:48:57.565Z,984.54
2017-03-29T07:50:07.824Z,984.54
2017-03-29T07:51:18.081Z,984.56
2017-03-29T07:52:28.361Z,984.58
2017-03-29T07:53:38.614Z,984.62
2017-03-29T07:54:48.873Z,984.57
2017-03-29T07:55:58.821Z,984.62
2017-03-29T07:57:09.072Z,984.65
2017-03-29T07:58:19.327Z,984.69
2017-03-29T07:59:29.264Z,984.72
2017-03-29T08:00:39.208Z,984.71
2017-03-29T08:01:49.155Z,984.73
2017-03-29T08:02:59.095Z,984.77
2017-03-29T08:04:09.384Z,984.82
2017-03-29T08:05:19.635Z,984.78
2017-03-29T08:06:29.890Z,984.86
2017-03-29T08:07:39.833Z,984.83
2017-03-29T08:08:49.774Z,984.85
2017-03-29T08:09:59.714Z,984.86
2017-03-29T08:11:09.669Z,984.9
2017-03-29T08:12:19.931Z,984.91
2017-03-29T08:13:29.871Z,984.91
2017-03-29T08:14:40.126Z,984.89
2017-03-29T08:15:50.382Z,984.93
2017-03-29T08:17:00.640Z,984.89
2017-03-29T08:18:10.900Z,984.9
2017-03-29T08:19:20.534Z,984.89
2017-03-29T08:20:30.790Z,984.89
2017-03-29T08:21:41.047Z,984.89
2017-03-29T08:22:50.682Z,984.89
2017-03-29T08:24:00.940Z,984.91
2017-03-29T08:25:11.205Z,984.93
2017-03-29T08:26:21.457Z,984.95
2017-03-29T08:27:31.708Z,984.94
2017-03-29T08:28:41.649Z,984.98
2017-03-29T08:29:51.276Z,984.97
2017-03-29T08:31:01.531Z,984.93
2017-03-29T08:32:11.787Z,984.96
2017-03-29T08:33:22.040Z,984.94
2017-03-29T08:34:32.311Z,984.93
2017-03-29T08:35:42.260Z,984.9
2017-03-29T08:36:52.523Z,984.9
2017-03-29T08:38:02.780Z,984.95
2017-03-29T08:39:12.421Z,984.95
2017-03-29T08:40:22.370Z,984.98
2017-03-29T08:41:32.311Z,985.01
2017-03-29T08:42:41.941Z,985.05
2017-03-29T08:43:52.195Z,985.07
2017-03-29T08:45:02.447Z,985.04
2017-03-29T08:46:12.735Z,985.05
2017-03-29T08:47:22.997Z,985.09
2017-03-29T08:48:32.628Z,985.08
2017-03-29T08:49:42.884Z,985.09
2017-03-29T08:50:52.828Z,985.06
2017-03-29T08:52:03.084Z,985.11
2017-03-29T08:53:13.341Z,985.07
2017-03-29T08:54:23.293Z,985.1
2017-03-29T08:55:33.229Z,985.11
2017-03-29T08:56:43.501Z,985.11
2017-03-29T08:57:53.441Z,985.12
2017-03-29T08:59:03.692Z,985.14
2017-03-29T09:00:13.955Z,985.17
2017-03-29T09:01:24.219Z,985.15
2017-03-29T09:02:34.483Z,985.13
2017-03-29T09:03:44.745Z,985.16
2017-03-29T09:04:55.006Z,985.21
2017-03-29T09:06:05.265Z,985.24
2017-03-29T09:07:15.525Z,985.23
2017-03-29T09:08:25.785Z,985.27
2017-03-29T09:09:36.039Z,985.26
2017-03-29T09:10:46.297Z,985.25
2017-03-29T09:11:56.241Z,985.27
2017-03-29T09:13:06.494Z,985.24
2017-03-29T09:14:16.432Z,985.3
2017-03-29T09:15:26.683Z,985.31
2017-03-29T09:16:36.948Z,985.31
2017-03-29T09:17:47.214Z,985.34
2017-03-29T09:18:57.164Z,985.29
2017-03-29T09:20:07.425Z,985.27
2017-03-29T09:21:17.370Z,985.35
2017-03-29T09:22:27.630Z,985.34
2017-03-29T09:23:37.576Z,985.33
2017-03-29T09:24:47.834Z,985.33
2017-03-29T09:25:58.087Z,985.32
2017-03-29T09:27:08.348Z,985.31
2017-03-29T09:28:18.604Z,985.38
2017-03-29T09:29:28.864Z,985.39
2017-03-29T09:30:39.128Z,985.38
2017-03-29T09:31:49.069Z,985.4
2017-03-29T09:32:59.331Z,985.38
2017-03-29T09:34:09.591Z,985.38
2017-03-29T09:35:19.538Z,985.4
2017-03-29T09:36:29.804Z,985.41
2017-03-29T09:37:39.751Z,985.42
2017-03-29T09:38:49.695Z,985.45
2017-03-29T09:39:59.645Z,985.51
2017-03-29T09:41:09.590Z,985.44
2017-03-29T09:42:19.846Z,985.44
2017-03-29T09:43:30.108Z,985.47
2017-03-29T09:44:40.369Z,985.44
2017-03-29T09:45:50.635Z,985.45
2017-03-29T09:47:00.903Z,985.45
2017-03-29T09:48:11.163Z,985.47
2017-03-29T09:49:21.428Z,985.42
2017-03-29T09:50:31.701Z,985.38
2017-03-29T09:51:41.965Z,985.37
2017-03-29T09:52:52.227Z,985.4
2017-03-29T09:54:02.490Z,985.45
2017-03-29T09:55:12.117Z,985.47
2017-03-29T09:56:22.375Z,985.48
2017-03-29T09:57:32.636Z,985.5
2017-03-29T09:58:42.912Z,985.47
2017-03-29T09:59:53.174Z,985.4
2017-03-29T10:01:03.439Z,985.43
2017-03-29T10:02:13.701Z,985.4
2017-03-29T10:03:23.962Z,985.42
2017-03-29T10:04:34.243Z,985.45
2017-03-29T10:05:44.514Z,985.46
2017-03-29T10:06:54.775Z,985.51
2017-03-29T10:08:04.717Z,985.5
2017-03-29T10:09:14.661Z,985.48
2017-03-29T10:10:24.288Z,985.5
2017-03-29T10:11:34.553Z,985.54
2017-03-29T10:12:44.811Z,985.53
2017-03-29T10:13:55.068Z,985.52
2017-03-29T10:15:05.329Z,985.52
2017-03-29T10:16:15.273Z,985.54
2017-03-29T10:17:25.535Z,985.57
2017-03-29T10:18:35.794Z,985.61
2017-03-29T10:19:46.058Z,985.58
2017-03-29T10:20:56.319Z,985.65
2017-03-29T10:22:06.581Z,985.66
2017-03-29T10:23:16.843Z,985.7
2017-03-29T10:24:26.786Z,985.71
2017-03-29T10:25:37.039Z,985.68
2017-03-29T10:26:47.304Z,985.68
2017-03-29T10:27:57.573Z,985.71
2017-03-29T10:29:07.834Z,985.72
2017-03-29T10:30:17.780Z,985.71
2017-03-29T10:31:28.039Z,985.7
2017-03-29T10:32:38.297Z,985.68
2017-03-29T10:33:48.559Z,985.68
2017-03-29T10:34:58.818Z,985.65
2017-03-29T10:36:08.456Z,985.66
2017-03-29T10:37:18.724Z,985.7
2017-03-29T10:38:29.289Z,985.69
2017-03-29T10:39:39.549Z,985.74
2017-03-29T10:40:49.807Z,985.73
2017-03-29T10:41:59.750Z,985.74
2017-03-29T10:43:10.009Z,985.74
2017-03-29T10:44:20.355Z,985.77
2017-03-29T10:45:30.613Z,985.79
2017-03-29T10:46:40.883Z,985.82
2017-03-29T10:47:50.838Z,985.82
2017-03-29T10:49:01.099Z,985.87
2017-03-29T10:50:11.357Z,985.85
2017-03-29T10:51:21.622Z,985.87
2017-03-29T10:52:31.567Z,985.86
2017-03-29T10:53:41.863Z,985.83
2017-03-29T10:54:52.127Z,985.86
2017-03-29T10:56:02.181Z,985.9
2017-03-29T10:57:12.445Z,985.89
2017-03-29T10:58:22.705Z,985.93
2017-03-29T10:59:32.962Z,985.97
2017-03-29T11:00:43.233Z,985.96
2017-03-29T11:01:53.181Z,985.93
2017-03-29T11:03:03.447Z,985.96
2017-03-29T11:04:13.706Z,986
2017-03-29T11:05:23.979Z,985.98
2017-03-29T11:06:34.242Z,985.98
2017-03-29T11:07:44.513Z,986.03
2017-03-29T11:08:54.778Z,986.06
2017-03-29T11:10:05.040Z,986.06
2017-03-29T11:11:14.986Z,986.03
2017-03-29T11:12:24.624Z,986.05
2017-03-29T11:13:34.884Z,986.08
2017-03-29T11:14:45.148Z,986.07
2017-03-29T11:15:55.404Z,986.1
2017-03-29T11:17:05.056Z,986.11
2017-03-29T11:18:15.312Z,986.18
2017-03-29T11:19:25.573Z,986.14
2017-03-29T11:20:35.835Z,986.2
2017-03-29T11:21:46.099Z,986.19
2017-03-29T11:22:56.052Z,986.19
2017-03-29T11:24:05.995Z,986.16
2017-03-29T11:25:16.256Z,986.16
2017-03-29T11:26:26.521Z,986.19
2017-03-29T11:27:36.469Z,986.19
2017-03-29T11:28:46.424Z,986.23
2017-03-29T11:29:56.374Z,986.2
2017-03-29T11:31:06.637Z,986.16
2017-03-29T11:32:16.894Z,986.16
2017-03-29T11:33:27.154Z,986.21
2017-03-29T11:34:37.099Z,986.2
2017-03-29T11:35:46.733Z,986.22
2017-03-29T11:36:56.688Z,986.23
2017-03-29T11:38:06.023Z,986.25
2017-03-29T11:39:16.282Z,986.2
2017-03-29T11:40:26.545Z,986.15
2017-03-29T11:41:36.812Z,986.12
2017-03-29T11:42:46.446Z,986.09
2017-03-29T11:43:56.709Z,986.5
2017-03-29T11:45:06.651Z,986.25
2017-03-29T11:46:16.912Z,986.23
2017-03-29T11:47:26.864Z,986.16
2017-03-29T11:48:37.130Z,986.16
2017-03-29T11:49:47.396Z,986.17
2017-03-29T11:50:57.667Z,986.13
2017-03-29T11:52:07.926Z,986.23
2017-03-29T11:53:18.189Z,986.19
2017-03-29T11:54:28.481Z,986.25
2017-03-29T11:55:38.744Z,986.3
2017-03-29T11:56:49.011Z,986.31
2017-03-29T11:57:59.275Z,986.35
2017-03-29T11:59:09.554Z,986.31
2017-03-29T12:00:19.820Z,986.26
2017-03-29T12:01:30.085Z,986.29
2017-03-29T12:02:40.382Z,986.21
2017-03-29T12:03:50.335Z,986.24
2017-03-29T12:05:00.294Z,986.25
2017-03-29T12:06:10.554Z,986.3
2017-03-29T12:07:20.817Z,986.39
2017-03-29T12:08:31.082Z,986.27
2017-03-29T12:09:41.041Z,986.48
2017-03-29T12:10:51.310Z,987.32
2017-03-29T12:12:01.639Z,986.72
2017-03-29T12:13:11.599Z,987.25
2017-03-29T12:14:21.861Z,986.51
2017-03-29T12:15:32.135Z,986.59
2017-03-29T12:16:42.402Z,987.15
2017-03-29T12:17:52.673Z,986.83
2017-03-29T12:19:02.956Z,987.11
2017-03-29T12:20:13.241Z,987.15
2017-03-29T12:21:23.196Z,987.21
2017-03-29T12:22:32.840Z,987.26
2017-03-29T12:23:42.799Z,987.01
2017-03-29T12:24:53.075Z,986.95
2017-03-29T12:26:03.344Z,986.89
2017-03-29T12:27:13.620Z,986.81
2017-03-29T12:28:23.581Z,986.82
2017-03-29T12:29:33.858Z,986.77
2017-03-29T12:30:44.138Z,986.82
2017-03-29T12:31:54.095Z,986.68
2017-03-29T12:33:04.060Z,986.7
2017-03-29T12:34:14.333Z,986.62
2017-03-29T12:35:24.603Z,986.54
2017-03-29T12:36:34.571Z,986.46
2017-03-29T12:37:44.843Z,986.4
2017-03-29T12:38:54.801Z,986.47
2017-03-29T12:40:04.777Z,986.64
2017-03-29T12:41:14.741Z,986.53
2017-03-29T12:42:25.022Z,986.47
2017-03-29T12:43:35.310Z,986.58
2017-03-29T12:44:45.587Z,986.52
2017-03-29T12:45:55.863Z,986.66
2017-03-29T12:47:06.142Z,986.64
2017-03-29T12:48:16.432Z,986.73
2017-03-29T12:49:26.744Z,986.79
2017-03-29T12:50:37.041Z,986.76
2017-03-29T12:51:46.693Z,986.91
2017-03-29T12:52:56.979Z,987.03
2017-03-29T12:54:06.633Z,987.13
2017-03-29T12:55:16.914Z,987.2
2017-03-29T12:56:27.190Z,986.99
2017-03-29T12:57:37.158Z,987
2017-03-29T12:58:47.430Z,986.94
2017-03-29T12:59:57.706Z,987.16
2017-03-29T13:01:07.670Z,986.87
2017-03-29T13:02:17.950Z,986.87
2017-03-29T13:03:28.222Z,986.81
2017-03-29T13:04:38.187Z,986.86
2017-03-29T13:05:48.463Z,986.92
2017-03-29T13:06:58.735Z,987.04
2017-03-29T13:08:08.696Z,987.17
2017-03-29T13:09:18.973Z,987.17
2017-03-29T13:10:29.261Z,987.08
2017-03-29T13:11:39.537Z,987.22
2017-03-29T13:12:49.821Z,987.18
2017-03-29T13:13:59.783Z,987.27
2017-03-29T13:15:09.748Z,987.29
2017-03-29T13:16:20.027Z,987.17
2017-03-29T13:17:30.305Z,986.9
2017-03-29T13:18:40.274Z,986.47
2017-03-29T13:19:50.558Z,987.16
2017-03-29T13:21:00.835Z,987.49
2017-03-29T13:22:11.128Z,987.81
2017-03-29T13:23:21.095Z,987.95
2017-03-29T13:24:31.372Z,987.89
2017-03-29T13:25:41.337Z,987.95
2017-03-29T13:26:51.614Z,986.69
2017-03-29T13:28:01.574Z,987.73
2017-03-29T13:29:11.228Z,987.95
2017-03-29T13:30:21.196Z,986.43
2017-03-29T13:31:31.481Z,987.45
2017-03-29T13:32:41.449Z,987.92
2017-03-29T13:35:05.681Z,987.03
2017-03-29T13:36:15.961Z,987.09
2017-03-29T13:37:25.614Z,986.27
2017-03-29T13:38:35.901Z,986.39
2017-03-29T13:39:46.179Z,987.37
2017-03-29T13:40:56.144Z,986.53
2017-03-29T13:42:06.423Z,986.49
2017-03-29T13:43:16.699Z,986.62
2017-03-29T13:44:26.974Z,986.57
2017-03-29T13:45:37.250Z,987.09
2017-03-29T13:46:47.526Z,986.99
2017-03-29T13:47:57.804Z,987.07
2017-03-29T13:49:08.091Z,986.98
2017-03-29T13:50:18.369Z,986.87
2017-03-29T13:51:28.651Z,986.85
2017-03-29T13:52:38.617Z,986.89
2017-03-29T13:53:48.895Z,986.5
2017-03-29T13:54:59.181Z,986.45
2017-03-29T13:56:08.829Z,986.28
2017-03-29T13:57:19.112Z,986.37
2017-03-29T13:58:28.754Z,986.29
2017-03-29T13:59:39.026Z,986.24
2017-03-29T14:00:48.985Z,986.24
2017-03-29T14:01:59.261Z,986.57
2017-03-29T14:03:09.531Z,986.43
2017-03-29T14:04:19.801Z,986.29
2017-03-29T14:05:30.074Z,986.13
2017-03-29T14:06:40.343Z,986.28
2017-03-29T14:07:50.306Z,986.39
2017-03-29T14:09:00.262Z,986.2
2017-03-29T14:10:10.527Z,986.37
2017-03-29T14:11:20.798Z,986.43
2017-03-29T14:12:30.755Z,986.74
2017-03-29T14:13:41.028Z,986.99
2017-03-29T14:14:50.983Z,987.23
2017-03-29T14:16:01.253Z,987.68
2017-03-29T14:17:11.218Z,987.63
2017-03-29T14:18:21.487Z,987.15
2017-03-29T14:19:31.758Z,987.04
2017-03-29T14:20:41.398Z,987.13
2017-03-29T14:21:51.667Z,987.05
2017-03-29T14:23:01.621Z,987.2
2017-03-29T14:24:11.579Z,987.83
2017-03-29T14:25:21.853Z,987.97
2017-03-29T14:26:32.137Z,988.08
2017-03-29T14:27:41.791Z,988.23
2017-03-29T14:28:52.066Z,988.27
2017-03-29T14:30:02.021Z,988.27
2017-03-29T14:31:12.294Z,988.24
2017-03-29T14:32:22.565Z,988.11
2017-03-29T14:33:32.525Z,987.97
2017-03-29T14:34:42.792Z,987.88
2017-03-29T14:35:52.751Z,987.77
2017-03-29T14:37:02.713Z,987.55
2017-03-29T14:38:12.989Z,987.49
2017-03-29T14:39:23.262Z,987.3
2017-03-29T14:40:33.531Z,987.31